Thunder radar more information blitzortung!


Radar de pluja more information rain snow radar


Visita la nostra xarxa de llocs de meteo:

Template documentation
and downloads

And another site



No particular awareness of the weather is required.    There are no Weather-warnings

Pagina Historial Weather Underground text

Diari Resum May 17, 2017 Unitats:  Mètric    Imperial   Tant
« Previous Dia
SegĂźent Dia »
Diari Setmana Mensual Anual Personalitzada
  Maxima: Minima: Media:
Temperatura: -17.8 °C -9.9 °C -5.3 °C
Punt de rosada: -17.8 °C -15.6 °C -13.6 °C
Humitat: Humidity % 25 % 40 %
Wind Speed: 0 km/h 0 km/h 9 km/h
RĂ fegues de vent: 0 km/h - -
Vent:- - SSW
Pression baro: 0 hPa 34327.3 hPa -
Precipitacions: 0 mm    
Historical Graphs
 
 
Dades de taula per May 17, 2017
Temps Temperatura Punt de rosada Pression baro Vent Wind Speed RĂ fegues de vent Humitat Rainfall Rate (Hourly)
-17.8 °C -17.8 °C 0 hPa Calm     Humidity % 0 mm
00:02 -7.3 °C -12.7 °C 34740.4 hPa SW 6 km/h 6 km/h 53 % 0 mm
00:05 -9.4 °C -12.9 °C 34669.3 hPa Calm     66 % 0 mm
00:07 -7.3 °C -12.7 °C 34740.4 hPa WSW 4.2 km/h 4.2 km/h 53 % 0 mm
00:15 -9.4 °C -12.9 °C 34635.4 hPa Calm     66 % 0 mm
00:25 -9.4 °C -12.8 °C 34669.3 hPa Calm     67 % 0 mm
00:35 -9.3 °C -12.6 °C 34669.3 hPa Calm     68 % 0 mm
00:45 -9.3 °C -12.6 °C 34635.4 hPa Calm     68 % 0 mm
00:55 -9.4 °C -12.8 °C 34635.4 hPa Calm     67 % 0 mm
01:05 -9.4 °C -12.8 °C 34635.4 hPa Calm     67 % 0 mm
01:15 -9.7 °C -13 °C 34635.4 hPa Calm     67 % 0 mm
01:25 -9.7 °C -12.9 °C 34635.4 hPa Calm   2.6 km/h 68 % 0 mm
01:35 -9.7 °C -12.9 °C 34635.4 hPa Calm     68 % 0 mm
01:45 -9.8 °C -13 °C 34635.4 hPa Calm   5.1 km/h 68 % 0 mm
01:55 -9.9 °C -13.1 °C 34635.4 hPa SE 5.1 km/h 5.1 km/h 68 % 0 mm
02:05 -9.8 °C -13.1 °C 34635.4 hPa Calm   2.6 km/h 68 % 0 mm
02:15 -9.7 °C -13.1 °C 34635.4 hPa SW 2.6 km/h 5.1 km/h 67 % 0 mm
02:25 -9.4 °C -12.9 °C 34635.4 hPa Calm   2.6 km/h 66 % 0 mm
02:35 -9.1 °C -12.9 °C 34635.4 hPa Calm     64 % 0 mm
02:45 -8.6 °C -12.3 °C 34635.4 hPa Calm     64 % 0 mm
02:55 -8.1 °C -12.2 °C 34635.4 hPa Calm     62 % 0 mm
03:05 -8.3 °C -12.6 °C 34635.4 hPa Calm   5.1 km/h 61 % 0 mm
03:15 -7.8 °C -12.1 °C 34601.5 hPa Calm   5.1 km/h 61 % 0 mm
03:25 -7.6 °C -12.1 °C 34601.5 hPa SSE 2.6 km/h 5.1 km/h 59 % 0 mm
03:35 -7.9 °C -12.4 °C 34601.5 hPa SSW 5.1 km/h 5.1 km/h 59 % 0 mm
03:45 -7.8 °C -12.5 °C 34601.5 hPa Calm   5.1 km/h 58 % 0 mm
03:55 -7.3 °C -12.1 °C 34601.5 hPa SSW 2.6 km/h 5.1 km/h 58 % 0 mm
04:05 -6.9 °C -11.9 °C 34601.5 hPa South 2.6 km/h 5.1 km/h 56 % 0 mm
04:15 -6.7 °C -11.8 °C 34601.5 hPa South 2.6 km/h 5.1 km/h 55 % 0 mm
04:25 -6.2 °C -11.6 °C 34601.5 hPa South 2.6 km/h 5.1 km/h 54 % 0 mm
04:35 -6.1 °C -11.8 °C 34601.5 hPa ENE 2.6 km/h 7.7 km/h 52 % 0 mm
04:45 -5.8 °C -11.6 °C 34601.5 hPa NE 2.6 km/h 5.1 km/h 52 % 0 mm
04:55 -5.5 °C -11.4 °C 34601.5 hPa ENE 5.1 km/h 5.1 km/h 51 % 0 mm
05:05 -5.2 °C -11.3 °C 34601.5 hPa ESE 2.6 km/h 5.1 km/h 50 % 0 mm
05:15 -4.8 °C -11.1 °C 34601.5 hPa Calm   5.1 km/h 49 % 0 mm
05:25 -5.1 °C -11.3 °C 34601.5 hPa ENE 5.1 km/h 7.7 km/h 49 % 0 mm
05:35 -4.6 °C -11.3 °C 34601.5 hPa East 5.1 km/h 5.1 km/h 47 % 0 mm
05:45 -4.6 °C -11.6 °C 34601.5 hPa ESE 2.6 km/h 7.7 km/h 45 % 0 mm
05:55 -4.4 °C -11.5 °C 34601.5 hPa East 2.6 km/h 7.7 km/h 45 % 0 mm
06:05 -4.2 °C -11.4 °C 34601.5 hPa East 5.1 km/h 7.7 km/h 44 % 0 mm
06:15 -4.2 °C -11.8 °C 34601.5 hPa ENE 5.1 km/h 5.1 km/h 42 % 0 mm
06:20 -4.1 °C -11.8 °C 34601.5 hPa ENE 5.1 km/h 5.1 km/h 42 % 0 mm
11:22 -4.1 °C -11.8 °C 34601.5 hPa South 6 km/h 6 km/h 42 % 0 mm
11:27 -3.7 °C -11.6 °C 34601.5 hPa SW 9 km/h 9 km/h 41 % 0 mm
11:32 -3.5 °C -11.4 °C 34601.5 hPa SE 9 km/h 9 km/h 41 % 0 mm
11:37 -3.7 °C -11.8 °C 34601.5 hPa East 7.6 km/h 7.6 km/h 40 % 0 mm
11:42 -3.7 °C -11.6 °C 34601.5 hPa ENE 6 km/h 6 km/h 41 % 0 mm
11:47 -3.7 °C -11.8 °C 34601.5 hPa ENE 14 km/h 14 km/h 40 % 0 mm
11:52 -3.8 °C -11.9 °C 34601.5 hPa ESE 6 km/h 6 km/h 40 % 0 mm
11:57 -3.6 °C -11.7 °C 34601.5 hPa ESE 17.9 km/h 17.9 km/h 40 % 0 mm
12:02 -3.7 °C -11.8 °C 34601.5 hPa ENE 9 km/h 9 km/h 40 % 0 mm
12:07 -3.6 °C -11.7 °C 34601.5 hPa ESE 12.2 km/h 12.2 km/h 40 % 0 mm
12:12 -3.6 °C -11.7 °C 34601.5 hPa SSE 11.9 km/h 11.9 km/h 40 % 0 mm
12:17 -3.3 °C -11.5 °C 34601.5 hPa SW 15 km/h 15 km/h 40 % 0 mm
12:19 -3.2 °C -11.3 °C 34601.5 hPa SW 9 km/h 9 km/h 40 % 0 mm
12:24 -2.9 °C -11.1 °C 34635.4 hPa SSE 9.8 km/h 9.8 km/h 40 % 0 mm
12:29 -2.4 °C -10.9 °C 34635.4 hPa East 9 km/h 9 km/h 39 % 0 mm
12:34 -2.6 °C -11.1 °C 34635.4 hPa SSW 9 km/h 9 km/h 39 % 0 mm
12:39 -2.5 °C -11.2 °C 34635.4 hPa SSE 12.7 km/h 12.7 km/h 38 % 0 mm
12:44 -2.7 °C -11.3 °C 34635.4 hPa SSE 15 km/h 15 km/h 38 % 0 mm
12:49 -2.5 °C -11.2 °C 34635.4 hPa ENE 11.9 km/h 11.9 km/h 38 % 0 mm
12:54 -2.7 °C -11.3 °C 34601.5 hPa East 15 km/h 15 km/h 38 % 0 mm
12:59 -2.7 °C -11.1 °C 34601.5 hPa NE 8.5 km/h 8.5 km/h 39 % 0 mm
13:04 -2.8 °C -11.2 °C 34601.5 hPa ESE 11.9 km/h 11.9 km/h 39 % 0 mm
13:09 -2.8 °C -11.4 °C 34601.5 hPa WSW 5.1 km/h 5.1 km/h 38 % 0 mm
13:14 -2.8 °C -11.8 °C 34601.5 hPa ENE 11.9 km/h 11.9 km/h 36 % 0 mm
13:19 -2.7 °C -11.8 °C 34601.5 hPa SW 11.9 km/h 11.9 km/h 36 % 0 mm
13:24 -2.4 °C -11.5 °C 34601.5 hPa SW 6 km/h 6.3 km/h 36 % 0 mm
13:29 -2.1 °C -11.5 °C 34601.5 hPa SW 9 km/h 9 km/h 35 % 0 mm
13:34 -1.9 °C -11.8 °C 34601.5 hPa SSW 17.9 km/h 17.9 km/h 33 % 0 mm
13:39 -2 °C -11.9 °C 34567.7 hPa SW 15 km/h 15 km/h 33 % 0 mm
13:44 -2.2 °C -12.6 °C 34567.7 hPa West 17.9 km/h 17.9 km/h 31 % 0 mm
13:49 -2 °C -12.4 °C 34567.7 hPa West 15 km/h 15 km/h 31 % 0 mm
13:54 -1.8 °C -12.5 °C 34567.7 hPa West 24.3 km/h 24.3 km/h 30 % 0 mm
13:59 -1.9 °C -12.6 °C 34567.7 hPa South 15 km/h 15 km/h 30 % 0 mm
14:04 -1.8 °C -12.8 °C 34567.7 hPa West 29.8 km/h 29.8 km/h 29 % 0 mm
14:09 -1.9 °C -12.9 °C 34533.8 hPa WSW 16.6 km/h 16.6 km/h 29 % 0 mm
14:14 -1.9 °C -12.9 °C 34533.8 hPa West 15 km/h 15 km/h 29 % 0 mm
14:19 -1.9 °C -12.9 °C 34533.8 hPa SW 11.9 km/h 11.9 km/h 29 % 0 mm
14:24 -1.9 °C -13.2 °C 34533.8 hPa West 17.9 km/h 17.9 km/h 28 % 0 mm
14:29 -1.8 °C -13.1 °C 34533.8 hPa South 20.9 km/h 20.9 km/h 28 % 0 mm
14:34 -1.8 °C -13.1 °C 34533.8 hPa SW 17.9 km/h 17.9 km/h 28 % 0 mm
14:39 -1.9 °C -13.2 °C 34533.8 hPa SW 15 km/h 15 km/h 28 % 0 mm
14:44 -1.9 °C -13.2 °C 34533.8 hPa WSW 12.7 km/h 12.7 km/h 28 % 0 mm
14:49 -1.8 °C -13.1 °C 34533.8 hPa SSW 9 km/h 9 km/h 28 % 0 mm
14:54 -1.9 °C -13.2 °C 34533.8 hPa SW 26.9 km/h 26.9 km/h 28 % 0 mm
14:55 -1.9 °C -13.2 °C 34533.8 hPa WSW 26.9 km/h 26.9 km/h 28 % 0 mm
15:00 -1.9 °C -13.2 °C 34533.8 hPa SSW 19.2 km/h 19.2 km/h 28 % 0 mm
15:05 -1.8 °C -13.1 °C 34533.8 hPa SW 17.9 km/h 17.9 km/h 28 % 0 mm
15:10 -1.6 °C -13.2 °C 34496.6 hPa SW 15 km/h 15.3 km/h 27 % 0 mm
15:15 -1.8 °C -13.4 °C 34496.6 hPa SSW 12.2 km/h 12.2 km/h 27 % 0 mm
15:20 -2 °C -13.6 °C 34496.6 hPa SW 26.9 km/h 26.9 km/h 27 % 0 mm
15:25 -1.8 °C -13.4 °C 34496.6 hPa WSW 15 km/h 15.3 km/h 27 % 0 mm
15:30 -1.8 °C -13.4 °C 34496.6 hPa WSW 18.3 km/h 18.3 km/h 27 % 0 mm
15:35 -1.8 °C -13.4 °C 34496.6 hPa SW 23.8 km/h 23.8 km/h 27 % 0 mm
15:45 -1.7 °C -13.6 °C 34496.6 hPa SW 26.9 km/h 26.9 km/h 26 % 0 mm
15:50 -1.8 °C -13.7 °C 34496.6 hPa WSW 15 km/h 15 km/h 26 % 0 mm
15:55 -1.9 °C -13.8 °C 34496.6 hPa SSW 26.9 km/h 26.9 km/h 26 % 0 mm
16:00 -1.9 °C -13.8 °C 34496.6 hPa SSW 17.9 km/h 17.9 km/h 26 % 0 mm
16:05 -2.1 °C -13.9 °C 34496.6 hPa South 23.8 km/h 23.8 km/h 26 % 0 mm
16:10 -2.2 °C -14 °C 34496.6 hPa South 17.9 km/h 17.9 km/h 26 % 0 mm
16:15 -2.1 °C -13.9 °C 34496.6 hPa WNW 25.1 km/h 25.1 km/h 26 % 0 mm
16:20 -2.1 °C -14.2 °C 34496.6 hPa West 25.9 km/h 25.9 km/h 25 % 0 mm
16:21 -2.2 °C -14.3 °C 34496.6 hPa SW 20.9 km/h 20.9 km/h 25 % 0 mm
16:26 -2.3 °C -14.1 °C 34496.6 hPa South 20.9 km/h 20.9 km/h 26 % 0 mm
16:31 -2.4 °C -14.2 °C 34496.6 hPa SW 32.8 km/h 32.8 km/h 26 % 0 mm
16:36 -2.6 °C -14.3 °C 34496.6 hPa WSW 17.9 km/h 17.9 km/h 26 % 0 mm
16:41 -2.6 °C -14.4 °C 34496.6 hPa WSW 14.5 km/h 14.5 km/h 26 % 0 mm
16:46 -2.9 °C -14.9 °C 34496.6 hPa SW 20.9 km/h 20.9 km/h 25 % 0 mm
16:51 -2.9 °C -14.9 °C 34496.6 hPa WSW 20.9 km/h 20.9 km/h 25 % 0 mm
16:56 -3 °C -15.1 °C 34496.6 hPa WSW 20.9 km/h 20.9 km/h 25 % 0 mm
17:01 -3 °C -15.1 °C 34496.6 hPa WSW 20.9 km/h 20.9 km/h 25 % 0 mm
17:06 -2.9 °C -14.6 °C 34496.6 hPa WSW 15 km/h 15 km/h 26 % 0 mm
17:11 -2.9 °C -14.7 °C 34462.7 hPa South 15 km/h 15 km/h 26 % 0 mm
17:16 -2.9 °C -14.9 °C 34462.7 hPa SW 17.9 km/h 17.9 km/h 25 % 0 mm
17:18 -3 °C -15.1 °C 34462.7 hPa South 15 km/h 15 km/h 25 % 0 mm
17:23 -3.1 °C -15.1 °C 34462.7 hPa SSW 11.9 km/h 11.9 km/h 25 % 0 mm
17:28 -3.1 °C -14.8 °C 34462.7 hPa WSW 17.9 km/h 17.9 km/h 26 % 0 mm
17:33 -3.3 °C -15 °C 34462.7 hPa South 17.9 km/h 17.9 km/h 26 % 0 mm
17:38 -3.3 °C -15.3 °C 34462.7 hPa SW 16.6 km/h 16.6 km/h 25 % 0 mm
17:43 -3.4 °C -15.1 °C 34462.7 hPa WSW 20.9 km/h 20.9 km/h 26 % 0 mm
17:48 -3.4 °C -15.1 °C 34462.7 hPa SW 20.9 km/h 20.9 km/h 26 % 0 mm
17:53 -3.6 °C -15.2 °C 34428.8 hPa West 11.9 km/h 11.9 km/h 26 % 0 mm
17:58 -3.6 °C -15.2 °C 34428.8 hPa SSW 16.1 km/h 16.1 km/h 26 % 0 mm
18:03 -3.7 °C -15.3 °C 34428.8 hPa SSW 17.9 km/h 17.9 km/h 26 % 0 mm
18:08 -3.7 °C -15.3 °C 34428.8 hPa SSW 15 km/h 15 km/h 26 % 0 mm
18:13 -3.8 °C -15.4 °C 34428.8 hPa SSE 15 km/h 15 km/h 26 % 0 mm
18:18 -3.8 °C -15.4 °C 34428.8 hPa WSW 15 km/h 15 km/h 26 % 0 mm
18:23 -3.8 °C -15.4 °C 34395 hPa SW 11.9 km/h 11.9 km/h 26 % 0 mm
18:28 -3.8 °C -15.1 °C 34395 hPa SW 9 km/h 9 km/h 27 % 0 mm
18:33 -3.9 °C -15.2 °C 34395 hPa SW 9 km/h 9 km/h 27 % 0 mm
18:38 -3.9 °C -14.9 °C 34395 hPa SW 11.9 km/h 11.9 km/h 28 % 0 mm
18:43 -4.1 °C -15.1 °C 34395 hPa SSW 9 km/h 9 km/h 28 % 0 mm
18:48 -4.1 °C -15.1 °C 34395 hPa SSW 15 km/h 15 km/h 28 % 0 mm
18:53 -4.3 °C -15.2 °C 34395 hPa SW 11.9 km/h 11.9 km/h 28 % 0 mm
18:58 -4.3 °C -15.2 °C 34395 hPa SW 9 km/h 9 km/h 28 % 0 mm
19:03 -4.3 °C -15.2 °C 34395 hPa SSW 11.9 km/h 11.9 km/h 28 % 0 mm
19:08 -4.4 °C -15.3 °C 34395 hPa SSW 6 km/h 6 km/h 28 % 0 mm
19:13 -4.4 °C -15.4 °C 34395 hPa SW 11.9 km/h 11.9 km/h 28 % 0 mm
19:18 -4.6 °C -15.4 °C 34395 hPa SW 17.9 km/h 17.9 km/h 28 % 0 mm
19:23 -4.6 °C -15.2 °C 34395 hPa WSW 9.3 km/h 9.3 km/h 29 % 0 mm
19:28 -4.6 °C -15.2 °C 34395 hPa SW 11.9 km/h 11.9 km/h 29 % 0 mm
19:33 -4.6 °C -15.2 °C 34395 hPa SSW 6 km/h 6.3 km/h 29 % 0 mm
19:38 -4.7 °C -15.3 °C 34395 hPa SW 9 km/h 9 km/h 29 % 0 mm
19:43 -4.8 °C -15.4 °C 34395 hPa SW 11.9 km/h 11.9 km/h 29 % 0 mm
19:45 -7.8 °C -13.7 °C 34395 hPa Calm   2.6 km/h 50 % 0 mm
19:48 -4.8 °C -15.4 °C 34395 hPa SW 9 km/h 9 km/h 29 % 0 mm
19:53 -4.9 °C -15.5 °C 34395 hPa West 11.9 km/h 11.9 km/h 29 % 0 mm
19:55 -7.9 °C -13.8 °C 34395 hPa Calm   7.7 km/h 50 % 0 mm
19:58 -5 °C -15.6 °C 34395 hPa SW 9 km/h 9 km/h 29 % 0 mm
20:03 -5 °C -15.3 °C 34395 hPa SSW 9 km/h 9 km/h 30 % 0 mm
20:05 -8.2 °C -13.8 °C 34395 hPa Calm     51 % 0 mm
20:08 -5.1 °C -15.1 °C 34395 hPa WSW 11.9 km/h 11.9 km/h 31 % 0 mm
20:13 -5.2 °C -15.2 °C 34395 hPa SW 10.3 km/h 10.3 km/h 31 % 0 mm
20:15 -8.3 °C -13.9 °C 34361.1 hPa East 2.6 km/h 2.6 km/h 51 % 0 mm
20:18 -5.3 °C -15.3 °C 34395 hPa West 6 km/h 6.3 km/h 31 % 0 mm
20:23 -5.4 °C -15.4 °C 34395 hPa WSW 8 km/h 8 km/h 31 % 0 mm
20:25 -8.4 °C -13.9 °C 34361.1 hPa Calm   2.6 km/h 52 % 0 mm
20:28 -5.4 °C -15.1 °C 34395 hPa SW 9 km/h 9 km/h 32 % 0 mm
20:33 -5.5 °C -15.2 °C 34395 hPa SW 6 km/h 6 km/h 32 % 0 mm
20:35 -8.3 °C -13.8 °C 34361.1 hPa Calm   2.6 km/h 52 % 0 mm
20:38 -5.6 °C -15.3 °C 34395 hPa SW 11.9 km/h 11.9 km/h 32 % 0 mm
20:43 -5.7 °C -15.1 °C 34395 hPa SW 6 km/h 6 km/h 33 % 0 mm
20:45 -8.4 °C -13.7 °C 34361.1 hPa Calm   2.6 km/h 54 % 0 mm
20:48 -5.7 °C -15.2 °C 34395 hPa WSW 9 km/h 9 km/h 33 % 0 mm
20:53 -5.8 °C -14.9 °C 34395 hPa SW 9 km/h 9 km/h 34 % 0 mm
20:55 -8.5 °C -13.7 °C 34361.1 hPa Calm     54 % 0 mm
20:58 -5.9 °C -15.1 °C 34395 hPa SW 9 km/h 9 km/h 34 % 0 mm
21:03 -5.9 °C -14.9 °C 34395 hPa SW 6 km/h 6 km/h 35 % 0 mm
21:08 -6 °C -14.9 °C 34395 hPa WSW 6 km/h 6 km/h 35 % 0 mm
21:13 -6.1 °C -14.9 °C 34395 hPa West 6.8 km/h 6.8 km/h 35 % 0 mm
21:15 -8.6 °C -13.5 °C 34361.1 hPa Calm   2.6 km/h 56 % 0 mm
21:18 -6.1 °C -14.9 °C 34395 hPa West 6 km/h 6 km/h 35 % 0 mm
21:23 -6.1 °C -14.8 °C 34395 hPa SW 6 km/h 6 km/h 36 % 0 mm
21:25 -8.7 °C -13.6 °C 34361.1 hPa Calm   2.6 km/h 56 % 0 mm
21:28 -6.2 °C -14.8 °C 34395 hPa WSW 6 km/h 6 km/h 36 % 0 mm
21:33 -6.2 °C -14.9 °C 34395 hPa West 6 km/h 6 km/h 36 % 0 mm
21:35 -8.8 °C -13.6 °C 34361.1 hPa Calm     57 % 0 mm
21:38 -6.3 °C -14.9 °C 34395 hPa West 6 km/h 6 km/h 36 % 0 mm
21:43 -6.3 °C -14.8 °C 34395 hPa WSW 6 km/h 6 km/h 37 % 0 mm
21:45 -8.9 °C -13.5 °C 34361.1 hPa Calm     58 % 0 mm
21:48 -6.4 °C -14.8 °C 34395 hPa West 5.1 km/h 5.1 km/h 37 % 0 mm
21:53 -6.4 °C -14.7 °C 34395 hPa WSW 3.1 km/h   38 % 0 mm
21:55 -8.9 °C -13.5 °C 34361.1 hPa Calm   2.6 km/h 58 % 0 mm
21:58 -6.5 °C -14.7 °C 34395 hPa WSW 2.3 km/h   38 % 0 mm
22:03 -6.6 °C -14.8 °C 34395 hPa SW 3.1 km/h   38 % 0 mm
22:05 -8.9 °C -13.3 °C 34361.1 hPa NNW 2.6 km/h 5.1 km/h 59 % 0 mm
22:08 -6.6 °C -14.6 °C 34395 hPa Calm     39 % 0 mm
22:13 -6.7 °C -14.7 °C 34395 hPa West 3.1 km/h   39 % 0 mm
22:15 -8.9 °C -13.4 °C 34361.1 hPa Calm     59 % 0 mm
22:18 -6.7 °C -14.7 °C 34395 hPa WNW 3.1 km/h   39 % 0 mm
22:23 -6.7 °C -14.5 °C 34361.1 hPa SW 3.1 km/h 3.1 km/h 40 % 0 mm
22:25 -9.1 °C -13.4 °C 34327.3 hPa Calm     60 % 0 mm
22:28 -6.8 °C -14.6 °C 34361.1 hPa SW 6 km/h 6 km/h 40 % 0 mm
22:33 -6.8 °C -14.4 °C 34361.1 hPa SW 6.8 km/h 6.8 km/h 41 % 0 mm
22:35 -9.2 °C -13.4 °C 34327.3 hPa Calm     60 % 0 mm
22:38 -6.9 °C -14.4 °C 34395 hPa WSW 6 km/h 6 km/h 41 % 0 mm
22:43 -6.9 °C -14.4 °C 34395 hPa WSW 9 km/h 9 km/h 41 % 0 mm
22:45 -9.3 °C -13.6 °C 34327.3 hPa NE 5.1 km/h 5.1 km/h 60 % 0 mm
22:48 -7 °C -14.6 °C 34395 hPa SW 6 km/h   41 % 0 mm
22:53 -7.1 °C -14.4 °C 34395 hPa WSW 3.1 km/h 3.1 km/h 42 % 0 mm
22:55 -9.5 °C -13.5 °C 34361.1 hPa Calm   5.1 km/h 62 % 0 mm
22:58 -7.1 °C -14.5 °C 34395 hPa WSW 6 km/h 6 km/h 42 % 0 mm
23:03 -7.2 °C -14.5 °C 34395 hPa SW 6 km/h 6 km/h 42 % 0 mm
23:05 -9.6 °C -13.6 °C 34361.1 hPa Calm     62 % 0 mm
23:08 -7.2 °C -14.6 °C 34395 hPa SW 6.3 km/h 6.3 km/h 42 % 0 mm
23:13 -7.2 °C -14.4 °C 34395 hPa WSW 6 km/h 6 km/h 43 % 0 mm
23:15 -9.7 °C -13.6 °C 34361.1 hPa Calm     63 % 0 mm
23:18 -7.3 °C -14.3 °C 34395 hPa SW 6 km/h 6 km/h 44 % 0 mm
23:23 -7.3 °C -14.3 °C 34395 hPa WSW 6.8 km/h 6.8 km/h 44 % 0 mm
23:25 -9.7 °C -13.6 °C 34361.1 hPa Calm   7.7 km/h 63 % 0 mm
23:28 -7.4 °C -14.3 °C 34395 hPa WSW 6 km/h 6 km/h 44 % 0 mm
23:33 -7.4 °C -14.2 °C 34395 hPa WSW 6 km/h 6 km/h 45 % 0 mm
23:35 -9.8 °C -13.7 °C 34361.1 hPa Calm   5.1 km/h 63 % 0 mm
23:38 -7.4 °C -14.2 °C 34395 hPa SW 6 km/h 6 km/h 45 % 0 mm
23:43 -7.4 °C -14.2 °C 34395 hPa WSW 6 km/h 6 km/h 45 % 0 mm
23:45 -9.8 °C -13.7 °C 34361.1 hPa Calm     63 % 0 mm
23:53 -7.4 °C -14.1 °C 34395 hPa West 4.2 km/h 4.2 km/h 46 % 0 mm
23:55 -9.9 °C -13.7 °C 34361.1 hPa WSW 2.6 km/h 5.1 km/h 63 % 0 mm
23:58 -7.4 °C -14.1 °C 34395 hPa West 3.1 km/h   46 % 0 mm
Meteo Sesrovires
Elogis d' Weather Underground - 2 mb

Guio original per  Jim McMurry - jmcmurry@mwt.net Adaptat per a la plantilla per  Wim van der Kuil - Leuven-Template.eu

Trobareu la nostra informacio del temps tambe a:

Weather Underground

AWEKAS